Time;durP1;ratioP1;P1;durP2;ratioP2;P2;SDS_P1;SDS_P2;PMS_P1;PMS_P2;Temp;Humidity;BMP_temperature;BMP_pressure;BME280_temperature;BME280_humidity;BME280_pressure;Samples;Min_cycle;Max_cycle;Signal;HPM_P1;HPM_P2
2023/12/23 00:00:41;;;;;;;3.13;0.60;;;;;;;-0.74;100.00;98673.72;5039701;28;20032;-71
2023/12/23 00:03:06;;;;;;;5.78;0.40;;;;;;;-0.76;100.00;98675.75;5056466;28;20021;-72
2023/12/23 00:05:32;;;;;;;1.92;0.43;;;;;;;-0.86;100.00;98664.56;5040134;28;20073;-69
2023/12/23 00:07:57;;;;;;;2.38;0.32;;;;;;;-0.80;100.00;98669.97;5039196;28;20029;-70
2023/12/23 00:10:22;;;;;;;4.75;0.70;;;;;;;-0.96;100.00;98646.34;5056355;28;20036;-69
2023/12/23 00:12:49;;;;;;;3.17;0.50;;;;;;;-0.78;100.00;98672.44;5056966;28;20028;-70
2023/12/23 00:15:14;;;;;;;2.45;0.50;;;;;;;-0.92;100.00;98660.03;5056770;28;20132;-71
2023/12/23 00:17:39;;;;;;;6.45;0.45;;;;;;;-0.84;100.00;98683.72;5057822;28;20112;-69
2023/12/23 00:20:05;;;;;;;5.00;0.65;;;;;;;-0.89;100.00;98678.13;5057961;28;20036;-73
2023/12/23 00:22:31;;;;;;;3.80;0.60;;;;;;;-0.99;100.00;98670.47;5056932;28;20033;-70
2023/12/23 00:24:57;;;;;;;3.78;0.43;;;;;;;-0.90;100.00;98693.16;5057272;28;20033;-70
2023/12/23 00:27:22;;;;;;;5.57;0.88;;;;;;;-0.91;100.00;98704.72;5059535;28;20102;-71
2023/12/23 00:29:48;;;;;;;3.65;0.60;;;;;;;-0.96;100.00;98692.06;5039166;28;20132;-69
2023/12/23 00:32:13;;;;;;;4.15;0.75;;;;;;;-0.95;100.00;98696.34;5058986;28;20044;-68
2023/12/23 00:34:38;;;;;;;9.40;0.75;;;;;;;-1.12;100.00;98668.44;5062432;28;20052;-69
2023/12/23 00:37:03;;;;;;;1.60;0.43;;;;;;;-1.00;100.00;98690.75;5060266;28;20697;-68
2023/12/23 00:39:29;;;;;;;4.38;0.57;;;;;;;-1.13;100.00;98669.41;5061232;28;20039;-68
2023/12/23 00:41:54;;;;;;;2.85;0.40;;;;;;;-1.00;100.00;98701.31;5060427;28;20051;-68
2023/12/23 00:44:20;;;;;;;4.07;0.52;;;;;;;-0.92;100.00;98689.06;5060304;28;20029;-67
2023/12/23 00:46:45;;;;;;;2.17;0.50;;;;;;;-1.00;100.00;98698.66;5060742;28;20032;-68
2023/12/23 00:49:11;;;;;;;3.72;0.63;;;;;;;-1.04;100.00;98692.13;5043591;28;20029;-67
2023/12/23 00:51:36;;;;;;;2.60;0.57;;;;;;;-1.04;100.00;98702.66;5058574;28;20036;-73
2023/12/23 00:54:01;;;;;;;4.55;0.57;;;;;;;-1.00;100.00;98700.50;5054899;28;20029;-75
2023/12/23 00:56:27;;;;;;;3.83;0.50;;;;;;;-1.12;100.00;98691.38;5038441;28;20029;-72
2023/12/23 00:58:52;;;;;;;6.47;1.10;;;;;;;-0.99;100.00;98716.19;5038276;28;20036;-73
2023/12/23 01:01:18;;;;;;;3.42;0.40;;;;;;;-1.02;100.00;98707.78;5038500;28;20055;-73
2023/12/23 01:03:43;;;;;;;5.32;0.68;;;;;;;-1.06;100.00;98707.31;5054476;28;20404;-70
2023/12/23 01:06:09;;;;;;;4.80;0.68;;;;;;;-1.03;100.00;98706.94;5054996;28;20089;-70
2023/12/23 01:08:34;;;;;;;4.53;0.70;;;;;;;-1.04;100.00;98718.50;5056377;28;20033;-73
2023/12/23 01:10:59;;;;;;;6.15;0.63;;;;;;;-1.02;100.00;98711.25;5056211;28;20036;-76
2023/12/23 01:13:26;;;;;;;2.63;0.47;;;;;;;-1.04;100.00;98717.69;5055135;28;20151;-70
2023/12/23 01:15:51;;;;;;;3.33;0.52;;;;;;;-1.18;100.00;98692.88;5054753;28;20586;-71
2023/12/23 01:18:16;;;;;;;2.55;0.38;;;;;;;-1.26;100.00;98687.66;5038115;28;20120;-70
2023/12/23 01:20:42;;;;;;;5.75;0.75;;;;;;;-1.07;100.00;98707.47;5054791;28;20140;-71
2023/12/23 01:23:08;;;;;;;2.83;0.52;;;;;;;-1.04;100.00;98718.50;5055427;28;20032;-72
2023/12/23 01:25:34;;;;;;;9.35;0.77;;;;;;;-0.98;100.00;98730.19;5037683;28;20036;-72
2023/12/23 01:28:05;;;;;;;4.72;0.50;;;;;;;-0.98;100.00;98735.47;5055009;28;20035;-71
2023/12/23 01:30:31;;;;;;;4.30;0.85;;;;;;;-0.97;100.00;98740.56;5055258;28;20021;-71
2023/12/23 01:32:57;;;;;;;5.75;0.80;;;;;;;-0.97;100.00;98727.34;5055240;28;20103;-70
2023/12/23 01:35:23;;;;;;;4.22;0.80;;;;;;;-1.00;100.00;98729.53;5053987;28;20067;-72
2023/12/23 01:37:48;;;;;;;2.20;0.57;;;;;;;-0.99;100.00;98732.00;5031939;28;20033;-70
2023/12/23 01:40:13;;;;;;;2.08;0.50;;;;;;;-1.06;100.00;98739.00;5035188;28;20033;-74
2023/12/23 01:42:40;;;;;;;5.90;0.57;;;;;;;-1.12;100.00;98744.97;5071701;28;20083;-69
2023/12/23 01:45:08;;;;;;;5.45;0.70;;;;;;;-1.17;100.00;98734.09;5056929;28;20060;-74
2023/12/23 01:47:34;;;;;;;4.95;0.77;;;;;;;-1.23;100.00;98737.44;5075637;28;20040;-73
2023/12/23 01:50:02;;;;;;;7.40;0.70;;;;;;;-1.20;100.00;98731.81;5057214;28;20513;-73
2023/12/23 01:52:28;;;;;;;6.60;0.85;;;;;;;-1.45;100.00;98707.41;5076287;28;20028;-70
2023/12/23 01:54:54;;;;;;;3.05;0.60;;;;;;;-1.26;100.00;98735.13;5075473;28;20100;-69
2023/12/23 01:57:20;;;;;;;4.45;0.70;;;;;;;-1.30;100.00;98736.50;5058081;28;20059;-74
2023/12/23 01:59:45;;;;;;;2.55;0.60;;;;;;;-1.43;100.00;98737.06;5057791;28;20028;-74
2023/12/23 02:02:11;;;;;;;4.38;0.55;;;;;;;-1.34;100.00;98751.84;5074143;28;20028;-71
2023/12/23 02:04:38;;;;;;;2.38;0.60;;;;;;;-1.38;100.00;98758.47;5058120;28;20102;-70
2023/12/23 02:07:03;;;;;;;7.32;0.60;;;;;;;-1.43;100.00;98748.41;5075622;28;20040;-70
2023/12/23 02:09:29;;;;;;;9.95;0.63;;;;;;;-1.66;100.00;98729.94;5074210;28;20032;-72
2023/12/23 02:12:02;;;;;;;4.93;0.70;;;;;;;-1.51;100.00;98772.22;5075336;28;20045;-70
2023/12/23 02:14:42;;;;;;;2.63;0.43;;;;;;;-1.55;100.00;98765.66;5057695;28;20363;-75
2023/12/23 02:17:09;;;;;;;2.00;0.47;;;;;;;-1.60;100.00;98752.13;5058100;28;20034;-69
2023/12/23 02:19:34;;;;;;;3.42;0.38;;;;;;;-1.49;100.00;98769.38;5041158;28;20020;-71
2023/12/23 02:22:00;;;;;;;4.65;0.45;;;;;;;-1.59;100.00;98752.94;5075428;28;20100;-70
2023/12/23 02:24:26;;;;;;;3.08;0.77;;;;;;;-1.59;100.00;98772.25;5075212;28;20032;-70
2023/12/23 02:26:58;;;;;;;2.83;0.50;;;;;;;-1.76;100.00;98747.75;5041117;28;20055;-69
2023/12/23 02:29:28;;;;;;;3.08;0.60;;;;;;;-1.73;100.00;98767.69;5057635;28;20024;-72
2023/12/23 02:31:55;;;;;;;2.22;0.60;;;;;;;-1.72;100.00;98758.81;5041181;28;20036;-72
2023/12/23 02:34:21;;;;;;;1.40;0.47;;;;;;;-1.57;100.00;98772.06;5074835;28;20024;-70
2023/12/23 02:36:46;;;;;;;2.67;0.60;;;;;;;-1.59;100.00;98777.53;5079156;28;20047;-69
2023/12/23 02:39:11;;;;;;;2.42;0.40;;;;;;;-1.52;100.00;98775.03;5060867;28;20033;-69
2023/12/23 02:41:37;;;;;;;2.65;0.50;;;;;;;-1.52;100.00;98775.84;5043974;28;20063;-70
2023/12/23 02:44:03;;;;;;;2.92;0.30;;;;;;;-1.47;100.00;98786.69;5078451;28;20045;-74
2023/12/23 02:46:28;;;;;;;3.55;0.50;;;;;;;-1.48;100.00;98785.06;5060585;28;20029;-74
2023/12/23 02:48:53;;;;;;;2.95;0.43;;;;;;;-1.47;100.00;98791.97;5060047;28;20036;-73
2023/12/23 02:51:19;;;;;;;7.22;0.50;;;;;;;-1.67;100.00;98759.09;5060880;28;20482;-74
2023/12/23 02:53:44;;;;;;;5.63;0.50;;;;;;;-1.44;100.00;98802.19;5077953;28;20083;-74
2023/12/23 02:56:09;;;;;;;1.60;0.40;;;;;;;-1.46;100.00;98801.53;5078365;28;20031;-71
2023/12/23 02:58:35;;;;;;;5.32;0.80;;;;;;;-1.43;100.00;98806.44;5078895;28;20172;-72
2023/12/23 03:01:06;;;;;;;2.63;0.50;;;;;;;-1.46;100.00;98817.38;5078751;28;20028;-72
2023/12/23 03:03:32;;;;;;;2.88;0.52;;;;;;;-1.49;100.00;98812.44;5078757;28;20084;-70
2023/12/23 03:05:57;;;;;;;5.38;0.52;;;;;;;-1.46;100.00;98822.66;5060791;28;20048;-71
2023/12/23 03:08:23;;;;;;;6.88;0.60;;;;;;;-1.45;100.00;98834.84;5061006;28;20037;-71
2023/12/23 03:10:50;;;;;;;6.07;0.80;;;;;;;-1.55;100.00;98821.03;5078568;28;20033;-72
2023/12/23 03:13:16;;;;;;;5.10;0.75;;;;;;;-1.54;100.00;98827.13;5078484;28;20082;-71
2023/12/23 03:15:41;;;;;;;3.38;0.30;;;;;;;-1.58;100.00;98818.72;5060203;28;20497;-71
2023/12/23 03:18:07;;;;;;;6.55;0.63;;;;;;;-1.55;100.00;98828.13;5027411;28;20104;-73
2023/12/23 03:20:32;;;;;;;3.20;0.75;;;;;;;-1.73;100.00;98815.94;5060717;28;20024;-72
2023/12/23 03:22:58;;;;;;;6.38;1.52;;;;;;;-1.66;100.00;98832.78;5060262;28;20032;-73
2023/12/23 03:25:23;;;;;;;3.53;0.50;;;;;;;-1.75;100.00;98846.97;5059981;28;20024;-73
2023/12/23 03:27:48;;;;;;;2.17;0.55;;;;;;;-1.71;100.00;98845.63;5043383;28;20103;-70
2023/12/23 03:30:14;;;;;;;2.90;0.40;;;;;;;-1.88;100.00;98837.94;5078498;28;20028;-73
2023/12/23 03:32:40;;;;;;;4.28;0.45;;;;;;;-1.76;100.00;98860.28;5060301;28;20490;-70
2023/12/23 03:35:05;;;;;;;4.82;0.50;;;;;;;-1.73;100.00;98862.59;5026899;28;20542;-69
2023/12/23 03:37:31;;;;;;;4.15;0.85;;;;;;;-2.29;100.00;98783.44;5043749;28;20086;-72
2023/12/23 03:39:56;;;;;;;4.15;0.75;;;;;;;-1.75;100.00;98849.59;5077284;28;20032;-70
2023/12/23 03:42:24;;;;;;;5.68;0.77;;;;;;;-1.82;100.00;98861.81;5043828;28;20538;-75
2023/12/23 03:44:49;;;;;;;5.28;0.50;;;;;;;-1.79;100.00;98860.63;5077749;28;20056;-71
2023/12/23 03:47:14;;;;;;;3.53;0.68;;;;;;;-1.92;100.00;98853.22;5077993;28;20032;-70
2023/12/23 03:49:40;;;;;;;4.38;0.90;;;;;;;-1.87;100.00;98860.66;5060319;28;20131;-70
2023/12/23 03:52:05;;;;;;;4.60;0.60;;;;;;;-1.88;100.00;98864.28;5060326;28;20029;-71
2023/12/23 03:54:30;;;;;;;1.63;0.50;;;;;;;-1.87;100.00;98863.28;5059944;28;20032;-71
2023/12/23 03:56:56;;;;;;;4.13;1.10;;;;;;;-1.88;100.00;98867.75;5043349;28;20028;-77
2023/12/23 03:59:21;;;;;;;1.55;0.45;;;;;;;-1.85;100.00;98875.31;5078166;28;20057;-75
2023/12/23 04:01:47;;;;;;;1.85;0.40;;;;;;;-1.91;100.00;98876.81;5078043;28;20032;-69
2023/12/23 04:04:12;;;;;;;1.15;0.45;;;;;;;-1.90;100.00;98867.91;5059959;28;20059;-72
2023/12/23 04:06:38;;;;;;;2.05;0.40;;;;;;;-2.21;100.00;98830.88;5059972;28;20037;-72
2023/12/23 04:09:03;;;;;;;2.70;0.40;;;;;;;-2.29;100.00;98827.41;5043247;28;20017;-71
2023/12/23 04:11:29;;;;;;;2.15;0.50;;;;;;;-1.99;100.00;98873.34;5043314;28;20057;-72
2023/12/23 04:13:54;;;;;;;1.90;0.20;;;;;;;-1.93;100.00;98889.31;5059787;28;20093;-72
2023/12/23 04:16:19;;;;;;;1.85;0.40;;;;;;;-2.02;100.00;98886.84;5059402;28;20128;-71
2023/12/23 04:18:45;;;;;;;2.40;0.40;;;;;;;-1.91;100.00;98882.06;5076195;28;20039;-71
2023/12/23 04:21:10;;;;;;;3.53;0.25;;;;;;;-2.10;100.00;98866.59;5077404;28;20055;-71
2023/12/23 04:23:36;;;;;;;1.63;0.50;;;;;;;-2.04;100.00;98870.41;5059628;28;20019;-73
2023/12/23 04:26:02;;;;;;;2.15;0.30;;;;;;;-1.98;100.00;98894.28;5059332;28;20021;-71
2023/12/23 04:28:27;;;;;;;2.47;0.38;;;;;;;-1.93;100.00;98902.50;5059740;28;20040;-70
2023/12/23 04:30:56;;;;;;;1.85;0.30;;;;;;;-2.13;100.00;98882.75;5059395;28;20029;-70
2023/12/23 04:33:22;;;;;;;2.15;0.30;;;;;;;-2.08;100.00;98887.53;5059388;28;20024;-72
2023/12/23 04:35:48;;;;;;;2.25;0.52;;;;;;;-2.10;100.00;98905.31;5058911;28;20509;-70
2023/12/23 04:38:14;;;;;;;2.58;0.40;;;;;;;-2.01;100.00;98904.31;5059626;28;20037;-73
2023/12/23 04:40:40;;;;;;;1.00;0.28;;;;;;;-2.07;100.00;98903.16;5059058;28;20028;-73
2023/12/23 04:43:05;;;;;;;1.25;0.30;;;;;;;-2.11;100.00;98890.50;5059364;28;20031;-71
2023/12/23 04:45:30;;;;;;;1.92;0.30;;;;;;;-2.14;100.00;98905.63;5059091;28;20032;-73
2023/12/23 04:47:56;;;;;;;1.65;0.20;;;;;;;-2.13;100.00;98903.81;5042179;28;20336;-73
2023/12/23 04:50:21;;;;;;;1.80;0.30;;;;;;;-2.14;100.00;98903.00;5058394;28;20031;-71
2023/12/23 04:52:47;;;;;;;1.55;0.38;;;;;;;-2.17;100.00;98899.88;5042004;28;20055;-72
2023/12/23 04:55:12;;;;;;;1.98;0.40;;;;;;;-2.15;100.00;98906.63;5059116;28;20549;-75
2023/12/23 04:57:39;;;;;;;1.98;0.50;;;;;;;-2.47;100.00;98856.56;5075991;28;20477;-72
2023/12/23 05:00:05;;;;;;;1.40;0.50;;;;;;;-2.22;100.00;98904.78;5076854;28;20025;-70
2023/12/23 05:02:32;;;;;;;1.48;0.28;;;;;;;-2.22;100.00;98902.16;5058005;28;20128;-76
2023/12/23 05:04:58;;;;;;;1.10;0.32;;;;;;;-2.20;100.00;98908.09;5057963;28;20024;-69
2023/12/23 05:07:24;;;;;;;1.38;0.30;;;;;;;-2.17;100.00;98918.31;5058239;28;20487;-70
2023/12/23 05:09:49;;;;;;;3.10;0.30;;;;;;;-2.23;100.00;98916.31;5076323;28;20037;-70
2023/12/23 05:12:15;;;;;;;1.50;0.25;;;;;;;-2.52;100.00;98857.03;5076335;28;20036;-70
2023/12/23 05:14:40;;;;;;;1.02;0.20;;;;;;;-2.42;100.00;98884.06;5073682;28;20021;-71
2023/12/23 05:17:06;;;;;;;3.03;0.30;;;;;;;-2.31;100.00;98919.78;5075374;28;20036;-73
2023/12/23 05:19:33;;;;;;;2.75;0.55;;;;;;;-2.40;100.00;98910.22;5076218;28;20028;-72
2023/12/23 05:21:58;;;;;;;1.17;0.13;;;;;;;-2.33;100.00;98929.66;5075750;28;20056;-72
2023/12/23 05:24:23;;;;;;;3.67;0.50;;;;;;;-2.33;100.00;98920.94;5057930;28;20044;-71
2023/12/23 05:26:49;;;;;;;0.38;0.17;;;;;;;-2.36;100.00;98915.00;5057455;28;20032;-70
2023/12/23 05:29:14;;;;;;;1.02;0.30;;;;;;;-2.51;100.00;98885.03;5057515;28;20123;-72
2023/12/23 05:31:39;;;;;;;1.85;0.30;;;;;;;-2.37;100.00;98918.63;5041002;28;20029;-71
2023/12/23 05:34:05;;;;;;;3.22;0.20;;;;;;;-2.41;100.00;98906.78;5057574;28;20032;-74
2023/12/23 05:36:30;;;;;;;1.55;0.20;;;;;;;-2.44;100.00;98915.00;5058001;28;20029;-77
2023/12/23 05:38:55;;;;;;;0.88;0.13;;;;;;;-2.90;100.00;98847.94;5058272;28;20112;-71
2023/12/23 05:41:21;;;;;;;1.08;0.30;;;;;;;-2.40;100.00;98926.03;5041330;28;20055;-74
2023/12/23 05:43:46;;;;;;;2.10;0.50;;;;;;;-2.31;100.00;98929.50;5040907;28;20039;-70
2023/12/23 05:46:11;;;;;;;1.40;0.30;;;;;;;-2.32;100.00;98926.03;5075602;28;20024;-76
2023/12/23 05:48:37;;;;;;;1.27;0.30;;;;;;;-2.29;100.00;98927.50;5057350;28;20033;-74
2023/12/23 05:51:02;;;;;;;2.67;0.43;;;;;;;-2.27;100.00;98920.28;5074459;28;20029;-71
2023/12/23 05:53:28;;;;;;;1.42;0.30;;;;;;;-2.29;100.00;98930.16;5057822;28;20039;-73
2023/12/23 05:55:53;;;;;;;1.83;0.40;;;;;;;-2.27;100.00;98928.19;5058127;28;20032;-74
2023/12/23 05:58:20;;;;;;;1.13;0.20;;;;;;;-2.31;100.00;98934.78;5075787;28;20029;-70
2023/12/23 06:00:46;;;;;;;0.80;0.20;;;;;;;-2.34;100.00;98935.09;5072192;28;20032;-74
2023/12/23 06:03:11;;;;;;;1.83;0.30;;;;;;;-2.38;100.00;98930.16;5040683;28;20025;-70
2023/12/23 06:05:36;;;;;;;1.98;0.30;;;;;;;-2.40;100.00;98933.94;5075367;28;20032;-74
2023/12/23 06:08:04;;;;;;;1.92;0.30;;;;;;;-2.40;100.00;98936.56;5057999;28;20059;-72
2023/12/23 06:10:29;;;;;;;2.35;0.40;;;;;;;-2.43;100.00;98934.25;5061963;28;20032;-73
2023/12/23 06:12:54;;;;;;;1.70;0.40;;;;;;;-2.42;100.00;98935.88;5061308;28;20039;-75
2023/12/23 06:15:20;;;;;;;0.75;0.20;;;;;;;-2.62;100.00;98914.28;5045079;28;20127;-71
2023/12/23 06:17:48;;;;;;;1.92;0.40;;;;;;;-2.75;100.00;98916.56;5079507;28;20479;-76
2023/12/23 06:20:13;;;;;;;2.20;0.38;;;;;;;-2.60;100.00;98934.22;5045083;28;20024;-70
2023/12/23 06:22:39;;;;;;;2.88;0.40;;;;;;;-2.60;100.00;98938.66;5079531;28;20025;-70
2023/12/23 06:25:05;;;;;;;2.22;0.45;;;;;;;-2.60;100.00;98944.75;5079570;28;20035;-72
2023/12/23 06:27:30;;;;;;;1.40;0.20;;;;;;;-2.61;100.00;98952.81;5079439;28;20398;-74
2023/12/23 06:29:55;;;;;;;2.00;0.50;;;;;;;-2.65;100.00;98946.19;5079450;28;20025;-71
2023/12/23 06:32:21;;;;;;;2.05;0.40;;;;;;;-2.62;100.00;98956.41;5079533;28;20028;-72
2023/12/23 06:34:46;;;;;;;3.70;0.57;;;;;;;-2.63;100.00;98952.13;5061256;28;20043;-71
2023/12/23 06:37:11;;;;;;;3.13;0.20;;;;;;;-2.63;100.00;98957.41;5078985;28;20033;-75
2023/12/23 06:39:37;;;;;;;1.02;0.20;;;;;;;-2.67;100.00;98956.09;5061242;28;20042;-72
2023/12/23 06:42:02;;;;;;;1.80;0.40;;;;;;;-2.72;100.00;98950.47;5057819;28;20048;-71
2023/12/23 06:44:28;;;;;;;0.90;0.30;;;;;;;-2.80;100.00;98938.09;5057900;28;20040;-73
2023/12/23 06:46:53;;;;;;;2.38;0.40;;;;;;;-2.71;100.00;98958.22;5058904;28;20029;-74
2023/12/23 06:49:18;;;;;;;1.40;0.30;;;;;;;-2.66;100.00;98955.91;5057899;28;20036;-74
2023/12/23 06:51:44;;;;;;;1.70;0.30;;;;;;;-2.63;100.00;98970.56;5058626;28;20549;-70
2023/12/23 06:54:09;;;;;;;1.15;0.20;;;;;;;-2.65;100.00;98964.63;5057285;28;20451;-71
2023/12/23 06:56:34;;;;;;;2.08;0.30;;;;;;;-2.64;100.00;98964.47;5057337;28;20033;-75
2023/12/23 06:59:01;;;;;;;2.95;0.25;;;;;;;-2.82;100.00;98945.31;5073407;28;20408;-74
2023/12/23 07:01:35;;;;;;;1.98;0.40;;;;;;;-2.61;100.00;98960.72;5024396;28;20078;-71
2023/12/23 07:04:01;;;;;;;1.15;0.30;;;;;;;-2.65;100.00;98962.00;5058141;28;20037;-69
2023/12/23 07:06:26;;;;;;;2.30;0.40;;;;;;;-2.65;100.00;98973.38;5058364;28;20029;-70
2023/12/23 07:08:51;;;;;;;2.33;0.28;;;;;;;-2.70;100.00;98967.75;5058018;28;20037;-73
2023/12/23 07:11:17;;;;;;;0.85;0.30;;;;;;;-2.89;100.00;98934.59;5040586;28;20053;-76
2023/12/23 07:13:42;;;;;;;2.67;0.47;;;;;;;-2.70;100.00;98969.56;5023852;28;20025;-72
2023/12/23 07:16:08;;;;;;;1.08;0.30;;;;;;;-2.70;100.00;98974.81;5058284;28;20033;-76
2023/12/23 07:18:33;;;;;;;1.35;0.30;;;;;;;-2.73;100.00;98977.78;5058322;28;20703;-74
2023/12/23 07:21:00;;;;;;;2.78;0.30;;;;;;;-2.76;100.00;98978.91;5039324;28;20415;-70
2023/12/23 07:23:25;;;;;;;2.67;0.50;;;;;;;-2.69;100.00;98979.09;5057854;28;20120;-72
2023/12/23 07:25:51;;;;;;;2.47;0.40;;;;;;;-2.71;100.00;98978.44;5073887;28;20047;-69
2023/12/23 07:28:16;;;;;;;2.55;0.43;;;;;;;-2.73;100.00;98975.13;5057487;28;20060;-72
2023/12/23 07:30:44;;;;;;;1.63;0.40;;;;;;;-2.72;100.00;98990.75;5058562;28;20021;-73
2023/12/23 07:33:11;;;;;;;1.42;0.68;;;;;;;-2.81;100.00;98967.19;5058284;28;20067;-71
2023/12/23 07:35:36;;;;;;;1.52;0.30;;;;;;;-2.75;100.00;98987.63;5058629;28;20028;-80
2023/12/23 07:38:02;;;;;;;3.10;0.50;;;;;;;-2.79;100.00;98991.56;5058316;28;20086;-79
2023/12/23 07:40:27;;;;;;;2.17;0.38;;;;;;;-2.81;100.00;98985.63;5056965;28;20051;-71
2023/12/23 07:42:53;;;;;;;2.47;0.40;;;;;;;-2.81;100.00;98990.88;5056280;28;20136;-76
2023/12/23 07:45:18;;;;;;;3.28;0.40;;;;;;;-2.77;100.00;98994.88;5040109;28;20159;-74
2023/12/23 07:47:44;;;;;;;2.58;0.28;;;;;;;-2.74;100.00;98989.28;5023375;28;20035;-73
2023/12/23 07:50:11;;;;;;;3.60;0.55;;;;;;;-2.70;100.00;98990.63;5039826;28;20103;-77
2023/12/23 07:52:36;;;;;;;1.08;0.28;;;;;;;-2.65;100.00;98993.59;5039855;28;20047;-73
2023/12/23 07:55:02;;;;;;;3.67;0.32;;;;;;;-2.66;100.00;98997.22;5040052;28;20074;-73
2023/12/23 07:57:27;;;;;;;1.05;0.40;;;;;;;-2.68;100.00;98988.63;5057631;28;20041;-71
2023/12/23 07:59:52;;;;;;;1.42;0.30;;;;;;;-2.64;100.00;98992.63;5039579;28;20028;-73
2023/12/23 08:02:18;;;;;;;1.17;0.30;;;;;;;-2.72;100.00;98980.22;5056547;28;20033;-69
2023/12/23 08:04:43;;;;;;;2.70;0.52;;;;;;;-2.79;100.00;98973.13;5055658;28;20110;-72
2023/12/23 08:07:08;;;;;;;3.25;0.40;;;;;;;-2.61;100.00;98992.31;5057383;28;20109;-70
2023/12/23 08:09:34;;;;;;;3.03;0.50;;;;;;;-2.60;100.00;98972.88;5057128;28;20063;-73
2023/12/23 08:11:59;;;;;;;2.50;0.60;;;;;;;-2.52;100.00;98991.31;5057387;28;20414;-73
2023/12/23 08:14:25;;;;;;;2.08;0.40;;;;;;;-2.53;100.00;98988.88;5056342;28;20040;-74
2023/12/23 08:16:50;;;;;;;2.15;0.28;;;;;;;-2.53;100.00;98991.50;5055852;28;20090;-68
2023/12/23 08:19:15;;;;;;;1.70;0.40;;;;;;;-2.53;100.00;98994.94;5039487;28;20074;-72
2023/12/23 08:21:41;;;;;;;2.03;0.45;;;;;;;-2.50;100.00;99001.72;5057455;28;20029;-69
2023/12/23 08:24:06;;;;;;;2.47;0.50;;;;;;;-2.51;100.00;99000.91;5057483;28;20036;-69
2023/12/23 08:26:33;;;;;;;1.40;0.30;;;;;;;-2.51;100.00;99000.06;5057061;28;20033;-69
2023/12/23 08:28:59;;;;;;;1.63;0.40;;;;;;;-2.49;100.00;98998.91;5055896;28;20029;-74
2023/12/23 08:31:24;;;;;;;2.03;0.40;;;;;;;-2.51;100.00;99002.72;5057241;28;20035;-67
2023/12/23 08:33:50;;;;;;;1.27;0.40;;;;;;;-2.64;100.00;98976.81;5055736;28;20037;-69
2023/12/23 08:36:15;;;;;;;1.95;0.30;;;;;;;-2.46;100.00;99006.50;5055788;28;20037;-74
2023/12/23 08:38:40;;;;;;;1.63;0.40;;;;;;;-2.80;100.00;98984.66;5039095;28;20029;-72
2023/12/23 08:41:06;;;;;;;2.55;0.40;;;;;;;-2.73;100.00;98997.03;5022673;28;20045;-73
2023/12/23 08:43:31;;;;;;;0.80;0.30;;;;;;;-2.62;100.00;99015.19;5055682;28;20029;-75
2023/12/23 08:45:57;;;;;;;1.00;0.30;;;;;;;-2.57;100.00;99022.59;5055596;28;20098;-71
2023/12/23 08:48:22;;;;;;;2.00;0.22;;;;;;;-2.57;100.00;99024.41;5055570;28;20395;-71
2023/12/23 08:50:47;;;;;;;1.10;0.30;;;;;;;-2.66;100.00;99024.34;5056935;28;20037;-75
2023/12/23 08:53:14;;;;;;;2.20;0.57;;;;;;;-2.58;100.00;99036.75;5056565;28;20547;-73
2023/12/23 08:55:39;;;;;;;1.30;0.30;;;;;;;-2.58;100.00;99039.38;5056643;28;20403;-70
2023/12/23 08:58:04;;;;;;;1.77;0.32;;;;;;;-2.70;100.00;99020.41;5056633;28;20029;-71
2023/12/23 09:00:31;;;;;;;1.95;0.40;;;;;;;-2.59;100.00;99040.34;5056515;28;20025;-76
2023/12/23 09:02:56;;;;;;;1.42;0.30;;;;;;;-2.62;100.00;99044.16;5055020;28;20067;-76
2023/12/23 09:05:21;;;;;;;2.72;0.30;;;;;;;-2.65;100.00;99040.97;5056107;28;20088;-73
2023/12/23 09:07:47;;;;;;;1.17;0.30;;;;;;;-2.65;100.00;99051.50;5055489;28;20438;-71
2023/12/23 09:10:12;;;;;;;2.50;0.40;;;;;;;-2.70;100.00;99048.53;5055486;28;20430;-72
2023/12/23 09:12:39;;;;;;;1.98;0.55;;;;;;;-2.80;100.00;99026.78;5038515;28;20036;-76
2023/12/23 09:15:05;;;;;;;1.30;0.40;;;;;;;-2.68;100.00;99036.03;5071743;28;20564;-71
2023/12/23 09:17:30;;;;;;;1.13;0.30;;;;;;;-2.55;100.00;99062.78;5055007;28;20024;-71
2023/12/23 09:19:56;;;;;;;0.75;0.20;;;;;;;-2.57;100.00;99075.25;5054902;28;20109;-71
2023/12/23 09:22:21;;;;;;;1.35;0.30;;;;;;;-2.58;100.00;99073.63;5057093;28;20052;-73
2023/12/23 09:24:47;;;;;;;0.82;0.20;;;;;;;-2.64;100.00;99075.06;5055203;28;20154;-73
2023/12/23 09:27:13;;;;;;;1.60;0.38;;;;;;;-2.64;100.00;99061.06;5038439;28;20100;-71
2023/12/23 09:29:38;;;;;;;2.05;0.30;;;;;;;-2.63;100.00;99071.44;5055280;28;20112;-74
2023/12/23 09:32:04;;;;;;;2.67;0.30;;;;;;;-2.61;100.00;99079.19;5056561;28;20097;-69
2023/12/23 09:34:29;;;;;;;4.72;0.50;;;;;;;-2.65;100.00;99075.19;5071920;28;20096;-74
2023/12/23 09:36:55;;;;;;;2.15;0.40;;;;;;;-2.55;100.00;99081.22;5056833;28;20079;-73
2023/12/23 09:39:20;;;;;;;3.17;0.77;;;;;;;-2.57;100.00;99075.25;5056126;28;20083;-74
2023/12/23 09:41:46;;;;;;;1.33;0.32;;;;;;;-2.55;100.00;99080.34;5054690;28;20059;-72
2023/12/23 09:44:12;;;;;;;1.15;0.40;;;;;;;-2.50;100.00;99086.00;5054478;28;20107;-73
2023/12/23 09:46:37;;;;;;;2.03;0.32;;;;;;;-2.43;100.00;99092.28;5054669;28;20123;-74
2023/12/23 09:49:03;;;;;;;1.00;0.20;;;;;;;-2.42;100.00;99088.66;5054984;28;20064;-76
2023/12/23 09:51:31;;;;;;;2.90;0.40;;;;;;;-2.37;100.00;99092.47;5071342;28;20079;-71
2023/12/23 09:54:01;;;;;;;3.63;0.50;;;;;;;-2.54;100.00;99063.59;5055126;28;20035;-72
2023/12/23 09:56:30;;;;;;;2.92;0.30;;;;;;;-2.95;100.00;98990.50;5056716;28;20028;-76
2023/12/23 09:58:56;;;;;;;2.78;0.30;;;;;;;-2.26;100.00;99078.16;5056071;28;20025;-74
2023/12/23 10:01:22;;;;;;;3.13;0.50;;;;;;;-2.31;100.00;99074.38;5054876;28;20025;-70
2023/12/23 10:03:48;;;;;;;1.83;0.40;;;;;;;-2.24;100.00;99089.38;5059243;28;20029;-72
2023/12/23 10:06:15;;;;;;;0.90;0.30;;;;;;;-2.27;100.00;99096.78;5074193;28;20037;-72
2023/12/23 10:08:41;;;;;;;0.90;0.30;;;;;;;-2.25;100.00;99092.16;5074988;28;20105;-73
2023/12/23 10:11:06;;;;;;;1.08;0.40;;;;;;;-2.25;100.00;99097.44;5076152;28;20056;-71
2023/12/23 10:13:32;;;;;;;2.75;0.32;;;;;;;-2.24;100.00;99099.09;5059461;28;20066;-72
2023/12/23 10:15:57;;;;;;;1.73;0.50;;;;;;;-2.24;100.00;99099.09;5056208;28;20035;-71
2023/12/23 10:18:22;;;;;;;3.55;0.68;;;;;;;-2.22;100.00;99102.38;5056021;28;20064;-74
2023/12/23 10:20:48;;;;;;;0.90;0.40;;;;;;;-2.38;100.00;99075.03;5054298;28;20041;-72
2023/12/23 10:23:13;;;;;;;1.48;0.30;;;;;;;-2.20;100.00;99103.06;5056047;28;20067;-71
2023/12/23 10:25:39;;;;;;;1.55;0.38;;;;;;;-2.18;100.00;99106.38;5065598;28;20029;-71
2023/12/23 10:28:06;;;;;;;1.10;0.30;;;;;;;-2.13;100.00;99110.16;5075977;28;20048;-71
2023/12/23 10:30:37;;;;;;;1.83;0.50;;;;;;;-2.30;100.00;99091.84;5075219;28;20029;-76
2023/12/23 10:33:06;;;;;;;0.82;0.20;;;;;;;-2.14;100.00;99108.53;5074713;28;20558;-73
2023/12/23 10:35:46;;;;;;;1.95;0.40;;;;;;;-2.13;100.00;99110.16;5075835;28;20043;-74
2023/12/23 10:38:16;;;;;;;1.75;0.40;;;;;;;-2.11;100.00;99111.84;5074598;28;20044;-72
2023/12/23 10:40:45;;;;;;;0.95;0.30;;;;;;;-2.08;100.00;99104.44;5075830;28;20099;-70
2023/12/23 10:43:12;;;;;;;0.80;0.20;;;;;;;-2.10;100.00;99102.94;5077257;28;20112;-70
2023/12/23 10:45:41;;;;;;;1.05;0.40;;;;;;;-2.04;100.00;99108.41;5095807;28;20097;-70
2023/12/23 10:48:09;;;;;;;1.08;0.30;;;;;;;-2.03;100.00;99107.41;5095859;28;20038;-72
2023/12/23 10:50:35;;;;;;;0.70;0.30;;;;;;;-2.14;100.00;99097.16;5061573;28;20028;-71
2023/12/23 10:53:03;;;;;;;1.92;0.43;;;;;;;-2.10;100.00;99109.03;5095811;28;20020;-70
2023/12/23 10:55:29;;;;;;;1.42;0.40;;;;;;;-2.12;100.00;99113.63;5094874;28;20089;-71
2023/12/23 10:57:55;;;;;;;0.52;0.25;;;;;;;-2.12;100.00;99116.25;5077310;28;20495;-73
2023/12/23 11:00:21;;;;;;;1.70;0.25;;;;;;;-2.13;100.00;99119.88;5058514;28;20051;-73
2023/12/23 11:02:49;;;;;;;1.33;0.30;;;;;;;-2.13;100.00;99114.63;5058763;28;20040;-70
2023/12/23 11:05:16;;;;;;;0.70;0.30;;;;;;;-2.09;100.00;99115.94;5077618;28;20072;-72
2023/12/23 11:07:45;;;;;;;0.93;0.30;;;;;;;-2.09;100.00;99121.22;5076999;28;20028;-72
2023/12/23 11:10:13;;;;;;;0.95;0.30;;;;;;;-2.22;100.00;99103.25;5078090;28;20054;-75
2023/12/23 11:12:39;;;;;;;2.40;0.50;;;;;;;-2.10;100.00;99121.38;5078769;28;20116;-70
2023/12/23 11:15:05;;;;;;;1.80;0.32;;;;;;;-2.05;100.00;99108.53;5078612;28;20066;-71
2023/12/23 11:17:31;;;;;;;1.45;0.30;;;;;;;-2.08;100.00;99117.63;5079115;28;20036;-71